TimeCDT,TemperatureF,Dew PointF,Humidity,Sea Level PressureIn,VisibilityMPH,Wind Direction,Wind SpeedMPH,Gust SpeedMPH,PrecipitationIn,Events,Conditions,WindDirDegrees,DateUTC
12:53 AM,81.0,61.0,50,29.93,10.0,SSE,12.7,-,N/A,,Clear,160,2013-09-10 05:53:00
1:53 AM,80.1,62.1,54,29.94,10.0,South,9.2,-,N/A,,Clear,180,2013-09-10 06:53:00
2:53 AM,78.1,62.1,58,29.95,10.0,South,6.9,-,N/A,,Clear,180,2013-09-10 07:53:00
3:53 AM,75.9,63.0,64,29.96,10.0,South,6.9,-,N/A,,Clear,180,2013-09-10 08:53:00
4:53 AM,73.0,63.0,71,29.98,10.0,South,5.8,-,N/A,,Clear,170,2013-09-10 09:53:00
5:53 AM,71.1,62.1,73,29.99,10.0,SE,6.9,-,N/A,,Clear,130,2013-09-10 10:53:00
6:53 AM,72.0,64.0,76,30.02,10.0,SE,3.5,-,N/A,,Mostly Cloudy,140,2013-09-10 11:53:00
7:53 AM,72.0,63.0,73,30.04,10.0,SE,3.5,-,N/A,,Clear,130,2013-09-10 12:53:00
8:53 AM,79.0,64.9,62,30.04,10.0,SSE,9.2,-,N/A,,Clear,160,2013-09-10 13:53:00
9:53 AM,80.1,66.0,62,30.06,10.0,South,9.2,-,N/A,,Clear,180,2013-09-10 14:53:00
10:53 AM,84.9,64.9,51,30.06,10.0,South,15.0,19.6,N/A,,Clear,190,2013-09-10 15:53:00
11:53 AM,88.0,64.9,46,30.07,10.0,South,12.7,18.4,N/A,,Scattered Clouds,170,2013-09-10 16:53:00
12:53 PM,91.0,62.1,38,30.05,10.0,South,16.1,24.2,N/A,,Partly Cloudy,170,2013-09-10 17:53:00
1:53 PM,90.0,64.0,42,30.03,10.0,SE,16.1,23.0,N/A,,Scattered Clouds,140,2013-09-10 18:53:00
2:53 PM,91.9,62.1,37,30.01,10.0,SSE,12.7,23.0,N/A,,Scattered Clouds,150,2013-09-10 19:53:00
3:53 PM,91.0,61.0,36,29.99,10.0,SSE,10.4,20.7,N/A,,Partly Cloudy,150,2013-09-10 20:53:00
4:53 PM,93.0,60.1,33,29.97,10.0,SSE,10.4,21.9,N/A,,Clear,160,2013-09-10 21:53:00
5:53 PM,91.9,61.0,35,29.96,10.0,SE,13.8,21.9,N/A,,Partly Cloudy,130,2013-09-10 22:53:00
6:53 PM,91.0,60.1,35,29.96,10.0,SSE,10.4,-,N/A,,Clear,150,2013-09-10 23:53:00
7:53 PM,88.0,60.1,39,29.97,10.0,SE,8.1,-,N/A,,Clear,140,2013-09-11 00:53:00
8:53 PM,86.0,61.0,43,29.99,10.0,SSE,8.1,-,N/A,,Partly Cloudy,150,2013-09-11 01:53:00
9:53 PM,82.9,62.1,49,30.02,10.0,SSE,6.9,-,N/A,,Clear,160,2013-09-11 02:53:00
10:53 PM,81.0,61.0,50,30.04,10.0,ESE,6.9,-,N/A,,Clear,120,2013-09-11 03:53:00
11:53 PM,80.1,61.0,52,30.04,10.0,SSE,6.9,-,N/A,,Clear,150,2013-09-11 04:53:00